Time;durP1;ratioP1;P1;durP2;ratioP2;P2;SDS_P1;SDS_P2;PMS_P1;PMS_P2;Temp;Humidity;BMP_temperature;BMP_pressure;BME280_temperature;BME280_humidity;BME280_pressure;Samples;Min_cycle;Max_cycle;Signal;HPM_P1;HPM_P2
2022/08/21 00:02:12;;;;;;;;;;;17.70;99.90;;;;;;5118072;27;19922;-80
2022/08/21 00:04:38;;;;;;;;;;;17.60;99.90;;;;;;5122233;27;19919;-80
2022/08/21 00:07:03;;;;;;;;;;;17.60;99.90;;;;;;5114522;27;19935;-80
2022/08/21 00:09:29;;;;;;;;;;;17.60;99.90;;;;;;5117763;27;19915;-80
2022/08/21 00:11:54;;;;;;;;;;;17.60;99.90;;;;;;5151172;27;19915;-78
2022/08/21 00:14:20;;;;;;;;;;;17.50;99.90;;;;;;5138417;27;19922;-79
2022/08/21 00:16:46;;;;;;;;;;;17.50;99.90;;;;;;5113684;27;19919;-80
2022/08/21 00:19:11;;;;;;;;;;;17.50;99.90;;;;;;5132969;27;19964;-80
2022/08/21 00:21:37;;;;;;;;;;;17.50;99.90;;;;;;5132030;27;19914;-80
2022/08/21 00:24:03;;;;;;;;;;;17.40;99.90;;;;;;5138838;27;19966;-80
2022/08/21 00:26:29;;;;;;;;;;;17.40;99.90;;;;;;5110482;27;19915;-80
2022/08/21 00:28:54;;;;;;;;;;;17.40;99.90;;;;;;5127869;27;19980;-80
2022/08/21 00:31:20;;;;;;;;;;;17.40;99.90;;;;;;5139077;27;20365;-80
2022/08/21 00:33:46;;;;;;;;;;;17.40;99.90;;;;;;5107141;27;19919;-80
2022/08/21 00:36:12;;;;;;;;;;;17.30;99.90;;;;;;5131988;27;20013;-80
2022/08/21 00:38:38;;;;;;;;;;;17.30;99.90;;;;;;5132757;27;19928;-80
2022/08/21 00:41:05;;;;;;;;;;;17.30;99.90;;;;;;5113320;27;20033;-80
2022/08/21 00:43:32;;;;;;;;;;;17.30;99.90;;;;;;5109476;27;19925;-80
2022/08/21 00:45:58;;;;;;;;;;;17.30;99.90;;;;;;5113300;28;19916;-80
2022/08/21 00:48:24;;;;;;;;;;;17.20;99.90;;;;;;5113391;27;19922;-80
2022/08/21 00:51:01;;;;;;;;;;;17.20;99.90;;;;;;5132472;27;19984;-80
2022/08/21 00:53:27;;;;;;;;;;;17.20;99.90;;;;;;5115859;27;19915;-80
2022/08/21 00:55:54;;;;;;;;;;;17.20;99.90;;;;;;5127414;27;19923;-80
2022/08/21 00:58:20;;;;;;;;;;;17.10;99.90;;;;;;5130588;28;19922;-80
2022/08/21 01:00:47;;;;;;;;;;;17.00;99.90;;;;;;5127314;28;19919;-80
2022/08/21 01:03:15;;;;;;;;;;;17.00;99.90;;;;;;5104329;27;19915;-80
2022/08/21 01:05:41;;;;;;;;;;;17.00;99.90;;;;;;5100837;27;19969;-80
2022/08/21 01:08:07;;;;;;;;;;;16.90;99.90;;;;;;5131650;27;20358;-80
2022/08/21 01:10:33;;;;;;;;;;;16.90;99.90;;;;;;5123332;27;19990;-80
2022/08/21 01:12:59;;;;;;;;;;;16.80;99.90;;;;;;5138898;27;19929;-79
2022/08/21 01:15:28;;;;;;;;;;;16.70;99.90;;;;;;5136522;27;19915;-79
2022/08/21 01:17:53;;;;;;;;;;;16.60;99.90;;;;;;5122620;27;19922;-79
2022/08/21 01:20:19;;;;;;;;;;;16.60;99.90;;;;;;5131285;27;20374;-80
2022/08/21 01:22:45;;;;;;;;;;;16.60;99.90;;;;;;5121921;27;20119;-80
2022/08/21 01:25:11;;;;;;;;;;;16.60;99.90;;;;;;5128587;27;19923;-80
2022/08/21 01:27:37;;;;;;;;;;;16.60;99.90;;;;;;5123881;27;19915;-80
2022/08/21 01:30:08;;;;;;;;;;;16.50;99.90;;;;;;5131387;27;20408;-80
2022/08/21 01:32:35;;;;;;;;;;;16.60;99.90;;;;;;5140573;27;20330;-80
2022/08/21 01:35:00;;;;;;;;;;;16.60;99.90;;;;;;5130322;27;20263;-80
2022/08/21 01:37:26;;;;;;;;;;;16.60;99.90;;;;;;5137977;27;20001;-80
2022/08/21 01:39:52;;;;;;;;;;;16.60;99.90;;;;;;5127723;27;20316;-80
2022/08/21 01:42:17;;;;;;;;;;;16.60;99.90;;;;;;5129124;27;19915;-80
2022/08/21 01:44:43;;;;;;;;;;;16.60;99.90;;;;;;5114357;27;19967;-80
2022/08/21 01:47:10;;;;;;;;;;;16.60;99.90;;;;;;5125806;27;19923;-80
2022/08/21 01:49:36;;;;;;;;;;;16.60;99.90;;;;;;5135767;27;19923;-80
2022/08/21 01:52:03;;;;;;;;;;;16.50;99.90;;;;;;5109521;27;19919;-80
2022/08/21 01:54:29;;;;;;;;;;;16.50;99.90;;;;;;5102213;27;19915;-80
2022/08/21 01:56:54;;;;;;;;;;;16.50;99.90;;;;;;5113675;27;20362;-80
2022/08/21 01:59:21;;;;;;;;;;;16.40;99.90;;;;;;5122544;27;19915;-79
2022/08/21 02:01:46;;;;;;;;;;;16.40;99.90;;;;;;5135856;27;20284;-79
2022/08/21 02:04:12;;;;;;;;;;;16.30;99.90;;;;;;5117238;27;19926;-79
2022/08/21 02:06:38;;;;;;;;;;;16.30;99.90;;;;;;5124970;27;20011;-80
2022/08/21 02:09:05;;;;;;;;;;;16.30;99.90;;;;;;5117374;27;19964;-80
2022/08/21 02:11:31;;;;;;;;;;;16.30;99.90;;;;;;5136184;27;20381;-80
2022/08/21 02:13:56;;;;;;;;;;;16.30;99.90;;;;;;5135936;27;19915;-80
2022/08/21 02:16:22;;;;;;;;;;;16.30;99.90;;;;;;5121109;27;19915;-80
2022/08/21 02:18:48;;;;;;;;;;;16.30;99.90;;;;;;5121121;27;19938;-80
2022/08/21 02:21:13;;;;;;;;;;;16.20;99.90;;;;;;5135008;27;20001;-80
2022/08/21 02:23:39;;;;;;;;;;;16.10;99.90;;;;;;5133979;27;19973;-80
2022/08/21 02:26:06;;;;;;;;;;;16.10;99.90;;;;;;5124031;27;19914;-80
2022/08/21 02:28:34;;;;;;;;;;;16.10;99.90;;;;;;5136699;27;19915;-79
2022/08/21 02:31:01;;;;;;;;;;;16.00;99.90;;;;;;5106379;27;19965;-79
2022/08/21 02:33:26;;;;;;;;;;;16.00;99.90;;;;;;5135232;27;19915;-79
2022/08/21 02:35:53;;;;;;;;;;;16.00;99.90;;;;;;5129035;27;20285;-79
2022/08/21 02:38:20;;;;;;;;;;;16.00;99.90;;;;;;5140945;27;20003;-79
2022/08/21 02:40:48;;;;;;;;;;;16.00;99.90;;;;;;5122037;27;20361;-80
2022/08/21 02:43:14;;;;;;;;;;;16.00;99.90;;;;;;5135516;27;19915;-80
2022/08/21 02:45:41;;;;;;;;;;;16.00;99.90;;;;;;5113314;27;20013;-80
2022/08/21 02:48:07;;;;;;;;;;;16.00;99.90;;;;;;5119616;27;19922;-80
2022/08/21 02:50:35;;;;;;;;;;;16.00;99.90;;;;;;5115509;27;20251;-80
2022/08/21 02:53:01;;;;;;;;;;;16.00;99.90;;;;;;5115551;27;19915;-80
2022/08/21 02:55:27;;;;;;;;;;;15.90;99.90;;;;;;5120613;27;19921;-80
2022/08/21 02:57:54;;;;;;;;;;;15.90;99.90;;;;;;5132142;27;19963;-79
2022/08/21 03:00:22;;;;;;;;;;;15.80;99.90;;;;;;5129852;27;19915;-80
2022/08/21 03:02:48;;;;;;;;;;;15.80;99.90;;;;;;5128995;27;19922;-80
2022/08/21 03:05:14;;;;;;;;;;;15.80;99.90;;;;;;5130664;27;19925;-80
2022/08/21 03:07:41;;;;;;;;;;;15.80;99.90;;;;;;5108360;27;19991;-80
2022/08/21 03:10:07;;;;;;;;;;;15.80;99.90;;;;;;5134870;27;19926;-80
2022/08/21 03:12:32;;;;;;;;;;;15.80;99.90;;;;;;5129518;27;19915;-80
2022/08/21 03:14:58;;;;;;;;;;;15.70;99.90;;;;;;5098638;27;20005;-80
2022/08/21 03:17:24;;;;;;;;;;;15.70;99.90;;;;;;5128494;27;19962;-80
2022/08/21 03:19:50;;;;;;;;;;;15.60;99.90;;;;;;5123085;27;19915;-80
2022/08/21 03:22:15;;;;;;;;;;;15.70;99.90;;;;;;5134170;27;19942;-80
2022/08/21 03:24:41;;;;;;;;;;;15.60;99.90;;;;;;5113773;27;19949;-80
2022/08/21 03:27:06;;;;;;;;;;;15.60;99.90;;;;;;5114607;27;19922;-80
2022/08/21 03:29:32;;;;;;;;;;;15.60;99.90;;;;;;5134607;27;19914;-80
2022/08/21 03:31:58;;;;;;;;;;;15.60;99.90;;;;;;5100247;27;20426;-80
2022/08/21 03:34:23;;;;;;;;;;;15.60;99.90;;;;;;5133511;27;20012;-80
2022/08/21 03:36:49;;;;;;;;;;;15.60;99.90;;;;;;5106767;27;19923;-80
2022/08/21 03:39:16;;;;;;;;;;;15.60;99.90;;;;;;5118710;27;20323;-80
2022/08/21 03:41:42;;;;;;;;;;;15.60;99.90;;;;;;5120539;27;19926;-80
2022/08/21 03:44:08;;;;;;;;;;;15.60;99.90;;;;;;5121239;27;19915;-79
2022/08/21 03:46:33;;;;;;;;;;;15.60;99.90;;;;;;5131567;27;19976;-79
2022/08/21 03:48:59;;;;;;;;;;;15.60;99.90;;;;;;5115882;27;19922;-80
2022/08/21 03:51:25;;;;;;;;;;;15.60;99.90;;;;;;5119108;27;19919;-79
2022/08/21 03:53:51;;;;;;;;;;;15.50;99.90;;;;;;5137555;27;19915;-79
2022/08/21 03:56:16;;;;;;;;;;;15.50;99.90;;;;;;5112114;27;19963;-79
2022/08/21 03:58:42;;;;;;;;;;;15.50;99.90;;;;;;5101699;27;19922;-79
2022/08/21 04:01:09;;;;;;;;;;;15.40;99.90;;;;;;5102032;27;20416;-80
2022/08/21 04:03:35;;;;;;;;;;;15.30;99.90;;;;;;5117327;27;19926;-80
2022/08/21 04:06:01;;;;;;;;;;;15.30;99.90;;;;;;5115917;27;19915;-80
2022/08/21 04:08:27;;;;;;;;;;;15.30;99.90;;;;;;5113682;27;19922;-79
2022/08/21 04:10:54;;;;;;;;;;;15.20;99.90;;;;;;5119739;27;19915;-79
2022/08/21 04:13:20;;;;;;;;;;;15.10;99.90;;;;;;5112376;27;19915;-79
2022/08/21 04:15:46;;;;;;;;;;;15.00;99.90;;;;;;5128649;27;20395;-80
2022/08/21 04:18:11;;;;;;;;;;;15.00;99.90;;;;;;5111154;27;19915;-80
2022/08/21 04:20:37;;;;;;;;;;;15.00;99.90;;;;;;5125248;27;19922;-80
2022/08/21 04:23:03;;;;;;;;;;;14.90;99.90;;;;;;5109917;27;19968;-80
2022/08/21 04:25:29;;;;;;;;;;;14.90;99.90;;;;;;5111487;27;19943;-80
2022/08/21 04:27:55;;;;;;;;;;;14.90;99.90;;;;;;5124186;27;19915;-80
2022/08/21 04:30:20;;;;;;;;;;;14.90;99.90;;;;;;5130444;27;20340;-80
2022/08/21 04:32:47;;;;;;;;;;;14.90;99.90;;;;;;5124650;27;19915;-79
2022/08/21 04:35:14;;;;;;;;;;;14.80;99.90;;;;;;5129305;27;19915;-79
2022/08/21 04:37:39;;;;;;;;;;;14.80;99.90;;;;;;5113168;27;19915;-79
2022/08/21 04:40:06;;;;;;;;;;;14.80;99.90;;;;;;5119395;27;19919;-79
2022/08/21 04:42:32;;;;;;;;;;;14.70;99.90;;;;;;5136089;27;19918;-79
2022/08/21 04:44:58;;;;;;;;;;;14.70;99.90;;;;;;5119807;27;19938;-79
2022/08/21 04:47:24;;;;;;;;;;;14.70;99.90;;;;;;5129025;28;19915;-79
2022/08/21 04:49:50;;;;;;;;;;;14.80;99.90;;;;;;5116163;27;19958;-80
2022/08/21 04:52:19;;;;;;;;;;;14.70;99.90;;;;;;5127009;27;19926;-80
2022/08/21 04:54:45;;;;;;;;;;;14.70;99.90;;;;;;5123862;27;19915;-80
2022/08/21 04:57:11;;;;;;;;;;;14.70;99.90;;;;;;5119523;27;19915;-80
2022/08/21 04:59:39;;;;;;;;;;;14.70;99.90;;;;;;5110670;27;19922;-79
2022/08/21 05:02:05;;;;;;;;;;;14.70;99.90;;;;;;5104022;27;19919;-79
2022/08/21 05:04:32;;;;;;;;;;;14.70;99.90;;;;;;5108531;27;19970;-79
2022/08/21 05:07:01;;;;;;;;;;;14.70;99.90;;;;;;5119161;27;19964;-80
2022/08/21 05:09:27;;;;;;;;;;;14.70;99.90;;;;;;5112657;27;20423;-80
2022/08/21 05:11:52;;;;;;;;;;;14.60;99.90;;;;;;5102073;28;19919;-79
2022/08/21 05:14:19;;;;;;;;;;;14.70;99.90;;;;;;5123010;27;19915;-79
2022/08/21 05:16:45;;;;;;;;;;;14.60;99.90;;;;;;5110940;27;19922;-79
2022/08/21 05:19:10;;;;;;;;;;;14.70;99.90;;;;;;5119709;27;19915;-79
2022/08/21 05:21:37;;;;;;;;;;;14.70;99.90;;;;;;5130206;27;19923;-79
2022/08/21 05:24:03;;;;;;;;;;;14.80;99.90;;;;;;5118130;27;19921;-79
2022/08/21 05:26:29;;;;;;;;;;;14.80;99.90;;;;;;5139768;27;20009;-79
2022/08/21 05:28:55;;;;;;;;;;;14.80;99.90;;;;;;5110154;27;19922;-79
2022/08/21 05:31:20;;;;;;;;;;;14.80;99.90;;;;;;5136339;27;19915;-79
2022/08/21 05:33:46;;;;;;;;;;;14.90;99.90;;;;;;5102939;27;19921;-79
2022/08/21 05:36:12;;;;;;;;;;;14.90;99.90;;;;;;5100706;27;19998;-79
2022/08/21 05:38:37;;;;;;;;;;;14.90;99.90;;;;;;5121826;27;19915;-79
2022/08/21 05:41:03;;;;;;;;;;;14.90;99.90;;;;;;5103459;27;20002;-79
2022/08/21 05:43:29;;;;;;;;;;;15.00;99.90;;;;;;5122040;27;19926;-79
2022/08/21 05:45:54;;;;;;;;;;;15.00;99.90;;;;;;5087301;28;19958;-79
2022/08/21 05:48:22;;;;;;;;;;;15.00;99.90;;;;;;5127701;27;19918;-79
2022/08/21 05:50:49;;;;;;;;;;;15.00;99.90;;;;;;5129571;27;19915;-79
2022/08/21 05:53:15;;;;;;;;;;;15.10;99.90;;;;;;5110695;27;19919;-79
2022/08/21 05:55:41;;;;;;;;;;;15.20;99.90;;;;;;5120326;27;19915;-79
2022/08/21 05:58:07;;;;;;;;;;;15.50;99.90;;;;;;5134294;27;19968;-79
2022/08/21 06:00:33;;;;;;;;;;;15.80;99.90;;;;;;5131427;27;20004;-79
2022/08/21 06:02:58;;;;;;;;;;;16.20;99.90;;;;;;5127115;27;20052;-80
2022/08/21 06:05:24;;;;;;;;;;;16.60;99.90;;;;;;5108156;27;19915;-79
2022/08/21 06:07:51;;;;;;;;;;;16.90;99.90;;;;;;5130182;27;19958;-79
2022/08/21 06:10:16;;;;;;;;;;;17.30;99.90;;;;;;5122844;27;19915;-79
2022/08/21 06:12:42;;;;;;;;;;;17.70;99.90;;;;;;5110827;27;19915;-79
2022/08/21 06:15:08;;;;;;;;;;;18.00;99.90;;;;;;5125629;27;20285;-79
2022/08/21 06:17:33;;;;;;;;;;;18.50;99.90;;;;;;5121882;27;20273;-79
2022/08/21 06:19:59;;;;;;;;;;;19.10;99.90;;;;;;5102098;27;19919;-80
2022/08/21 06:22:24;;;;;;;;;;;19.30;99.90;;;;;;5134759;27;19926;-80
2022/08/21 06:24:50;;;;;;;;;;;19.70;99.90;;;;;;5105365;27;20357;-80
2022/08/21 06:27:17;;;;;;;;;;;20.30;99.90;;;;;;5128467;27;19963;-80
2022/08/21 06:29:43;;;;;;;;;;;20.50;99.90;;;;;;5108603;27;19928;-80
2022/08/21 06:32:11;;;;;;;;;;;20.70;99.90;;;;;;5115157;27;19915;-80
2022/08/21 06:34:37;;;;;;;;;;;21.60;99.90;;;;;;5132525;27;19915;-80
2022/08/21 06:37:03;;;;;;;;;;;21.90;99.90;;;;;;5123366;27;19915;-80
2022/08/21 06:39:29;;;;;;;;;;;21.80;99.90;;;;;;5123811;27;20392;-79
2022/08/21 06:41:55;;;;;;;;;;;22.00;99.90;;;;;;5102142;27;19920;-80
2022/08/21 06:44:20;;;;;;;;;;;22.30;99.90;;;;;;5120565;27;19915;-80
2022/08/21 06:46:46;;;;;;;;;;;22.70;99.90;;;;;;5112232;27;19915;-80
2022/08/21 06:49:12;;;;;;;;;;;23.00;99.90;;;;;;5133990;27;19915;-79
2022/08/21 06:51:38;;;;;;;;;;;22.80;99.90;;;;;;5107882;27;19915;-80
2022/08/21 06:54:04;;;;;;;;;;;22.70;99.90;;;;;;5136090;27;19922;-80
2022/08/21 06:56:29;;;;;;;;;;;22.90;99.90;;;;;;5112085;27;19915;-80
2022/08/21 06:58:55;;;;;;;;;;;23.00;99.90;;;;;;5135322;27;19919;-80
2022/08/21 07:01:23;;;;;;;;;;;23.00;98.60;;;;;;5115023;27;19923;-80
2022/08/21 07:03:49;;;;;;;;;;;23.20;98.70;;;;;;5113191;27;20377;-80
2022/08/21 07:06:14;;;;;;;;;;;23.40;99.50;;;;;;5098761;27;19923;-80
2022/08/21 07:08:40;;;;;;;;;;;23.70;98.60;;;;;;5098441;27;20397;-79
2022/08/21 07:11:18;;;;;;;;;;;23.90;98.40;;;;;;5089022;27;19927;-80
2022/08/21 07:13:44;;;;;;;;;;;24.20;97.00;;;;;;5095441;27;19915;-80
2022/08/21 07:16:10;;;;;;;;;;;24.50;96.60;;;;;;5108557;27;19938;-79
2022/08/21 07:18:35;;;;;;;;;;;24.60;96.10;;;;;;5115392;27;19919;-80
2022/08/21 07:21:03;;;;;;;;;;;25.10;95.20;;;;;;5132475;27;20244;-80
2022/08/21 07:23:31;;;;;;;;;;;25.20;93.20;;;;;;5118701;27;20038;-80
2022/08/21 07:25:59;;;;;;;;;;;25.20;93.60;;;;;;5138939;27;19919;-80
2022/08/21 07:28:24;;;;;;;;;;;25.30;93.80;;;;;;5119469;27;20009;-80
2022/08/21 07:30:51;;;;;;;;;;;25.10;92.30;;;;;;5135529;27;19954;-80
2022/08/21 07:33:16;;;;;;;;;;;25.10;93.80;;;;;;5119541;27;19922;-80
2022/08/21 07:35:42;;;;;;;;;;;25.00;92.90;;;;;;5136057;27;20377;-80
2022/08/21 07:38:08;;;;;;;;;;;24.90;93.60;;;;;;5120479;27;19919;-80
2022/08/21 07:40:33;;;;;;;;;;;25.00;92.40;;;;;;5119272;27;19922;-80
2022/08/21 07:42:59;;;;;;;;;;;25.10;93.50;;;;;;5132688;27;20013;-80
2022/08/21 07:45:24;;;;;;;;;;;25.40;92.70;;;;;;5115792;27;20362;-80
2022/08/21 07:47:51;;;;;;;;;;;25.40;92.40;;;;;;5115943;27;19922;-80
2022/08/21 07:50:17;;;;;;;;;;;25.40;91.60;;;;;;5133474;27;19915;-80
2022/08/21 07:52:43;;;;;;;;;;;25.30;91.70;;;;;;5134327;27;19915;-80
2022/08/21 07:55:10;;;;;;;;;;;25.10;91.60;;;;;;5113840;27;19915;-80
2022/08/21 07:57:36;;;;;;;;;;;25.10;91.90;;;;;;5074088;27;19942;-80
2022/08/21 08:00:08;;;;;;;;;;;25.30;91.80;;;;;;5143863;27;19919;-80
2022/08/21 08:02:33;;;;;;;;;;;25.40;91.70;;;;;;5134676;27;19923;-80
2022/08/21 08:05:00;;;;;;;;;;;25.10;91.20;;;;;;5118473;27;19915;-79
2022/08/21 08:07:26;;;;;;;;;;;25.20;90.70;;;;;;5102476;27;19926;-80
2022/08/21 08:09:52;;;;;;;;;;;25.10;90.40;;;;;;5113802;27;20370;-80
2022/08/21 08:12:18;;;;;;;;;;;25.00;90.50;;;;;;5135051;27;19915;-80
2022/08/21 08:14:43;;;;;;;;;;;25.20;90.20;;;;;;5133140;27;19953;-80
2022/08/21 08:17:10;;;;;;;;;;;25.40;90.40;;;;;;5098027;27;19919;-80
2022/08/21 08:19:35;;;;;;;;;;;25.40;90.00;;;;;;5134556;27;19919;-80
2022/08/21 08:22:01;;;;;;;;;;;25.50;89.00;;;;;;5119014;27;20009;-80
2022/08/21 08:24:27;;;;;;;;;;;25.50;88.00;;;;;;5118982;27;20293;-80
2022/08/21 08:26:53;;;;;;;;;;;25.20;86.90;;;;;;5125164;27;19915;-80
2022/08/21 08:29:20;;;;;;;;;;;25.30;87.70;;;;;;5118691;27;20048;-80
2022/08/21 08:31:46;;;;;;;;;;;25.30;90.00;;;;;;5136851;27;19919;-80
2022/08/21 08:34:11;;;;;;;;;;;25.50;88.40;;;;;;5126201;27;19915;-80
2022/08/21 08:36:37;;;;;;;;;;;25.60;85.90;;;;;;5109481;27;20292;-80
2022/08/21 08:39:04;;;;;;;;;;;25.70;87.70;;;;;;5123665;27;19993;-80
2022/08/21 08:41:30;;;;;;;;;;;25.60;87.90;;;;;;5136724;27;20005;-80
2022/08/21 08:43:59;;;;;;;;;;;25.40;84.50;;;;;;5122146;27;20367;-80
2022/08/21 08:46:28;;;;;;;;;;;25.30;84.80;;;;;;5116235;27;19971;-80
2022/08/21 08:49:02;;;;;;;;;;;25.10;86.90;;;;;;5115740;28;19968;-80
2022/08/21 08:51:51;;;;;;;;;;;25.00;87.50;;;;;;5109086;27;19926;-80
2022/08/21 08:54:32;;;;;;;;;;;25.10;87.20;;;;;;5108665;27;19953;-80
2022/08/21 08:57:02;;;;;;;;;;;25.20;84.90;;;;;;5130657;27;20006;-80
2022/08/21 08:59:48;;;;;;;;;;;25.20;85.00;;;;;;5134328;27;20006;-80
2022/08/21 09:02:14;;;;;;;;;;;25.40;87.20;;;;;;5134089;27;19923;-80
2022/08/21 09:04:41;;;;;;;;;;;25.70;84.50;;;;;;5134662;27;19923;-79
2022/08/21 09:07:25;;;;;;;;;;;25.70;83.80;;;;;;5117784;27;20001;-80
2022/08/21 09:09:59;;;;;;;;;;;25.70;83.60;;;;;;5111158;27;19966;-80
2022/08/21 09:12:37;;;;;;;;;;;25.40;82.30;;;;;;5125470;27;19930;-80
2022/08/21 09:15:06;;;;;;;;;;;25.10;82.00;;;;;;5135670;27;19915;-80
2022/08/21 09:17:50;;;;;;;;;;;24.90;83.70;;;;;;5119137;27;19919;-80
2022/08/21 09:20:34;;;;;;;;;;;24.50;84.80;;;;;;5114512;27;19919;-80
2022/08/21 09:23:19;;;;;;;;;;;24.30;86.20;;;;;;5125441;28;19962;-80
2022/08/21 09:25:50;;;;;;;;;;;24.50;86.30;;;;;;5140456;27;19915;-80
2022/08/21 09:28:16;;;;;;;;;;;25.00;86.80;;;;;;5157789;27;19926;-80
2022/08/21 09:30:42;;;;;;;;;;;25.30;84.70;;;;;;5132267;27;19919;-80
2022/08/21 09:33:11;;;;;;;;;;;25.60;83.90;;;;;;5138544;27;19914;-80
2022/08/21 09:35:47;;;;;;;;;;;25.80;83.10;;;;;;5156095;27;20036;-80
2022/08/21 09:38:23;;;;;;;;;;;25.90;82.20;;;;;;5154513;27;19914;-80
2022/08/21 09:40:55;;;;;;;;;;;26.30;80.40;;;;;;5140098;27;19926;-80
2022/08/21 09:43:22;;;;;;;;;;;26.50;80.10;;;;;;5140194;27;19919;-80
2022/08/21 09:45:49;;;;;;;;;;;26.70;77.70;;;;;;5157416;27;20001;-80
2022/08/21 09:48:19;;;;;;;;;;;26.90;78.50;;;;;;5150627;27;19937;-80
2022/08/21 09:50:47;;;;;;;;;;;27.10;76.30;;;;;;5151944;27;19942;-80
2022/08/21 09:53:15;;;;;;;;;;;27.20;78.10;;;;;;5135073;27;19915;-80
2022/08/21 09:58:41;;;;;;;;;;;27.10;71.50;;;;;;5149369;27;19919;-80
2022/08/21 10:01:12;;;;;;;;;;;26.90;72.70;;;;;;5160364;27;19978;-80
2022/08/21 10:03:38;;;;;;;;;;;26.80;72.20;;;;;;5154144;27;20388;-80
2022/08/21 10:06:08;;;;;;;;;;;26.60;71.50;;;;;;5151496;27;19914;-80
2022/08/21 10:08:34;;;;;;;;;;;26.70;72.40;;;;;;5138851;27;19921;-80
2022/08/21 10:11:14;;;;;;;;;;;26.80;71.00;;;;;;5138278;27;19915;-80
2022/08/21 10:13:42;;;;;;;;;;;27.00;71.00;;;;;;5152417;27;20370;-80
2022/08/21 10:16:14;;;;;;;;;;;27.00;69.00;;;;;;5136715;27;19922;-80
2022/08/21 10:18:42;;;;;;;;;;;27.00;69.80;;;;;;5139113;27;20385;-80
2022/08/21 10:21:07;;;;;;;;;;;27.10;69.60;;;;;;5124596;27;19915;-80
2022/08/21 10:23:38;;;;;;;;;;;27.20;68.40;;;;;;5135389;27;19988;-80
2022/08/21 10:26:04;;;;;;;;;;;27.30;70.10;;;;;;5138261;27;19924;-80
2022/08/21 10:28:39;;;;;;;;;;;27.30;66.20;;;;;;5138535;27;19915;-80
2022/08/21 10:31:14;;;;;;;;;;;27.20;68.60;;;;;;5133514;27;20378;-80
2022/08/21 10:33:48;;;;;;;;;;;27.10;68.10;;;;;;5133908;27;19919;-80
2022/08/21 10:36:26;;;;;;;;;;;27.20;67.40;;;;;;5115949;27;19915;-80
2022/08/21 10:38:58;;;;;;;;;;;26.80;66.30;;;;;;5133418;27;19964;-80
2022/08/21 10:41:30;;;;;;;;;;;26.90;67.90;;;;;;5130348;27;20345;-80
2022/08/21 10:44:05;;;;;;;;;;;27.10;68.80;;;;;;5136473;27;19923;-80
2022/08/21 10:46:34;;;;;;;;;;;27.10;67.20;;;;;;5135040;27;19915;-80
2022/08/21 10:49:12;;;;;;;;;;;27.30;66.30;;;;;;5129457;27;19915;-80
2022/08/21 10:51:48;;;;;;;;;;;27.20;65.60;;;;;;5116575;27;20009;-80
2022/08/21 10:54:20;;;;;;;;;;;27.30;66.50;;;;;;5135281;27;19914;-80
2022/08/21 10:56:47;;;;;;;;;;;27.40;66.80;;;;;;5110738;27;19933;-80
2022/08/21 10:59:16;;;;;;;;;;;27.40;67.00;;;;;;5138197;27;20305;-80
2022/08/21 11:01:47;;;;;;;;;;;27.60;66.80;;;;;;5134933;27;20277;-80
2022/08/21 11:04:15;;;;;;;;;;;27.60;64.80;;;;;;5133666;27;19939;-80
2022/08/21 11:06:43;;;;;;;;;;;27.80;67.20;;;;;;5120685;27;19919;-80
2022/08/21 11:09:17;;;;;;;;;;;27.50;65.70;;;;;;5113798;27;19922;-80
2022/08/21 11:11:52;;;;;;;;;;;27.30;67.30;;;;;;5134522;27;19915;-80
2022/08/21 11:14:24;;;;;;;;;;;27.30;68.40;;;;;;5115288;27;19919;-79
2022/08/21 11:16:54;;;;;;;;;;;27.10;66.30;;;;;;5115596;27;19918;-80
2022/08/21 11:19:22;;;;;;;;;;;27.00;67.30;;;;;;5123605;27;19930;-80
2022/08/21 11:22:00;;;;;;;;;;;27.10;67.00;;;;;;5130568;27;19919;-80
2022/08/21 11:24:37;;;;;;;;;;;26.90;66.90;;;;;;5135962;27;19915;-80
2022/08/21 11:27:23;;;;;;;;;;;27.00;65.20;;;;;;5130737;27;20006;-80
2022/08/21 11:29:54;;;;;;;;;;;26.90;65.00;;;;;;5124691;27;19920;-79
2022/08/21 11:32:38;;;;;;;;;;;26.60;64.60;;;;;;5134832;27;19922;-79
2022/08/21 11:35:19;;;;;;;;;;;26.60;65.90;;;;;;5112842;27;19960;-80
2022/08/21 11:37:45;;;;;;;;;;;26.90;65.00;;;;;;5119234;27;19914;-80
2022/08/21 11:40:24;;;;;;;;;;;27.10;64.30;;;;;;5119922;27;19938;-80
2022/08/21 11:43:01;;;;;;;;;;;27.20;64.50;;;;;;5129313;27;19919;-80
2022/08/21 11:45:37;;;;;;;;;;;27.40;65.10;;;;;;5119810;27;19923;-80
2022/08/21 11:48:22;;;;;;;;;;;27.50;65.70;;;;;;5135497;27;19915;-80
2022/08/21 11:50:49;;;;;;;;;;;27.10;64.60;;;;;;5135189;27;19919;-80
2022/08/21 11:53:34;;;;;;;;;;;26.60;64.50;;;;;;5137095;27;19922;-80
2022/08/21 11:56:13;;;;;;;;;;;26.30;64.80;;;;;;5136009;27;19915;-80
2022/08/21 11:58:41;;;;;;;;;;;26.30;67.10;;;;;;5119258;27;19921;-80
2022/08/21 12:01:09;;;;;;;;;;;26.50;67.50;;;;;;5116267;27;19922;-79
2022/08/21 12:03:50;;;;;;;;;;;26.90;67.60;;;;;;5115515;27;19919;-79
2022/08/21 12:06:26;;;;;;;;;;;27.10;64.80;;;;;;5136506;27;20017;-79
2022/08/21 12:09:04;;;;;;;;;;;27.00;64.70;;;;;;5136971;27;20385;-79
2022/08/21 12:11:30;;;;;;;;;;;27.10;65.50;;;;;;5119411;27;19973;-79
2022/08/21 12:14:04;;;;;;;;;;;27.20;66.60;;;;;;5118550;27;19937;-79
2022/08/21 12:16:30;;;;;;;;;;;27.30;65.60;;;;;;5119114;27;19915;-79
2022/08/21 12:19:14;;;;;;;;;;;27.20;64.30;;;;;;5130901;27;19968;-80
2022/08/21 12:21:49;;;;;;;;;;;27.10;65.20;;;;;;5133126;27;19922;-80
2022/08/21 12:24:17;;;;;;;;;;;27.10;65.20;;;;;;5110957;27;19915;-80
2022/08/21 12:26:56;;;;;;;;;;;27.20;64.30;;;;;;5134449;27;19987;-80
2022/08/21 12:29:30;;;;;;;;;;;27.30;62.10;;;;;;5115403;27;20602;-80
2022/08/21 12:32:00;;;;;;;;;;;27.30;63.00;;;;;;5134163;27;19923;-80
2022/08/21 12:34:31;;;;;;;;;;;27.40;63.80;;;;;;5117018;27;20293;-80
2022/08/21 12:36:58;;;;;;;;;;;27.40;60.20;;;;;;5132381;27;19918;-80
2022/08/21 12:39:26;;;;;;;;;;;27.30;61.90;;;;;;5118398;27;19919;-80
2022/08/21 12:42:06;;;;;;;;;;;27.30;61.10;;;;;;5123341;27;19930;-80
2022/08/21 12:44:41;;;;;;;;;;;27.40;62.90;;;;;;5136258;27;19915;-80
2022/08/21 12:47:13;;;;;;;;;;;27.70;62.10;;;;;;5132908;27;20377;-80
2022/08/21 12:49:54;;;;;;;;;;;27.70;61.50;;;;;;5118425;27;19925;-80
2022/08/21 12:52:24;;;;;;;;;;;27.60;61.40;;;;;;5128617;27;19915;-80
2022/08/21 12:54:53;;;;;;;;;;;27.40;61.90;;;;;;5134573;27;19915;-80
2022/08/21 12:57:28;;;;;;;;;;;27.40;62.20;;;;;;5119124;27;19915;-80
2022/08/21 12:59:56;;;;;;;;;;;27.20;62.50;;;;;;5134629;27;19915;-80
2022/08/21 13:02:23;;;;;;;;;;;26.90;61.50;;;;;;5134877;27;20396;-80
2022/08/21 13:04:49;;;;;;;;;;;26.60;62.40;;;;;;5118730;27;19941;-80
2022/08/21 13:07:16;;;;;;;;;;;26.50;63.50;;;;;;5135269;27;19915;-80
2022/08/21 13:09:53;;;;;;;;;;;26.40;63.70;;;;;;5140197;27;19964;-80
2022/08/21 13:12:20;;;;;;;;;;;26.50;65.50;;;;;;5137831;27;20429;-80
2022/08/21 13:14:47;;;;;;;;;;;26.70;65.20;;;;;;5134914;27;20001;-80
2022/08/21 13:17:14;;;;;;;;;;;26.90;65.80;;;;;;5119727;27;20357;-80
2022/08/21 13:19:40;;;;;;;;;;;27.00;64.80;;;;;;5139658;27;19926;-80
2022/08/21 13:22:12;;;;;;;;;;;27.10;64.40;;;;;;5136397;27;19927;-80
2022/08/21 13:24:37;;;;;;;;;;;27.20;66.00;;;;;;5133240;27;19919;-80
2022/08/21 13:27:03;;;;;;;;;;;27.30;65.50;;;;;;5136892;27;19926;-80
2022/08/21 13:29:30;;;;;;;;;;;27.40;64.90;;;;;;5139838;27;20307;-80
2022/08/21 13:31:58;;;;;;;;;;;27.50;64.90;;;;;;5135331;27;19922;-80
2022/08/21 13:34:25;;;;;;;;;;;27.60;65.20;;;;;;5122671;27;19919;-80
2022/08/21 13:36:52;;;;;;;;;;;27.80;63.30;;;;;;5140083;27;20357;-81
2022/08/21 13:39:18;;;;;;;;;;;27.80;63.30;;;;;;5139565;27;19914;-81
2022/08/21 13:41:45;;;;;;;;;;;27.80;64.50;;;;;;5139450;27;19922;-81
2022/08/21 13:44:31;;;;;;;;;;;27.50;63.20;;;;;;5139582;27;19915;-81
2022/08/21 13:46:57;;;;;;;;;;;27.10;64.00;;;;;;5119477;27;20388;-81
2022/08/21 13:49:29;;;;;;;;;;;26.60;64.80;;;;;;5133002;27;20437;-80
2022/08/21 13:51:54;;;;;;;;;;;26.30;66.30;;;;;;5120519;27;19915;-80
2022/08/21 13:54:33;;;;;;;;;;;26.10;67.00;;;;;;5137847;27;19914;-80
2022/08/21 13:56:58;;;;;;;;;;;26.00;68.20;;;;;;5111382;27;20397;-80
2022/08/21 13:59:29;;;;;;;;;;;25.90;67.80;;;;;;5138769;27;19915;-80
2022/08/21 14:02:21;;;;;;;;;;;25.80;67.60;;;;;;5139143;27;19926;-80
2022/08/21 14:04:50;;;;;;;;;;;25.60;68.20;;;;;;5117540;27;19919;-80
2022/08/21 14:07:20;;;;;;;;;;;25.50;68.80;;;;;;5139442;27;20389;-80
2022/08/21 14:09:46;;;;;;;;;;;25.40;69.40;;;;;;5139286;27;20404;-80
2022/08/21 14:12:14;;;;;;;;;;;25.40;70.00;;;;;;5139348;27;19915;-80
2022/08/21 14:14:40;;;;;;;;;;;25.40;71.00;;;;;;5118759;27;20358;-80
2022/08/21 14:17:25;;;;;;;;;;;25.50;71.00;;;;;;5121513;27;19915;-80
2022/08/21 14:19:50;;;;;;;;;;;25.50;72.80;;;;;;5126397;27;20346;-80
2022/08/21 14:22:27;;;;;;;;;;;25.40;73.10;;;;;;5132603;27;19976;-80
2022/08/21 14:25:01;;;;;;;;;;;25.30;73.20;;;;;;5138219;27;20274;-80
2022/08/21 14:27:28;;;;;;;;;;;24.90;74.00;;;;;;5138954;27;19919;-80